sensor_id;sensor_type;location;lat;lon;timestamp;temperature;humidity
21487;DHT22;10905;50.822;4.336;2023-04-24T00:00:16;10.60;99.90
21487;DHT22;10905;50.822;4.336;2023-04-24T00:02:43;10.70;99.90
21487;DHT22;10905;50.822;4.336;2023-04-24T00:05:15;10.60;99.90
21487;DHT22;10905;50.822;4.336;2023-04-24T00:07:41;10.70;99.90
21487;DHT22;10905;50.822;4.336;2023-04-24T00:10:07;10.70;99.90
21487;DHT22;10905;50.822;4.336;2023-04-24T00:12:32;10.70;99.90
21487;DHT22;10905;50.822;4.336;2023-04-24T00:14:58;10.70;99.90
21487;DHT22;10905;50.822;4.336;2023-04-24T00:17:23;10.70;99.90
21487;DHT22;10905;50.822;4.336;2023-04-24T00:19:49;10.60;99.90
21487;DHT22;10905;50.822;4.336;2023-04-24T00:22:16;10.60;99.90
21487;DHT22;10905;50.822;4.336;2023-04-24T00:24:42;10.60;99.90
21487;DHT22;10905;50.822;4.336;2023-04-24T00:27:08;10.60;99.90
21487;DHT22;10905;50.822;4.336;2023-04-24T00:29:33;10.60;99.90
21487;DHT22;10905;50.822;4.336;2023-04-24T00:31:59;10.60;99.90
21487;DHT22;10905;50.822;4.336;2023-04-24T00:34:24;10.50;99.90
21487;DHT22;10905;50.822;4.336;2023-04-24T00:36:50;10.40;99.90
21487;DHT22;10905;50.822;4.336;2023-04-24T00:39:20;10.40;99.90
21487;DHT22;10905;50.822;4.336;2023-04-24T00:41:46;10.50;99.90
21487;DHT22;10905;50.822;4.336;2023-04-24T00:44:13;10.60;99.90
21487;DHT22;10905;50.822;4.336;2023-04-24T00:46:39;10.60;99.90
21487;DHT22;10905;50.822;4.336;2023-04-24T00:49:04;10.60;99.90
21487;DHT22;10905;50.822;4.336;2023-04-24T00:51:31;10.60;99.90
21487;DHT22;10905;50.822;4.336;2023-04-24T00:53:58;10.50;99.90
21487;DHT22;10905;50.822;4.336;2023-04-24T00:56:24;10.50;99.90
21487;DHT22;10905;50.822;4.336;2023-04-24T00:58:49;10.50;99.90
21487;DHT22;10905;50.822;4.336;2023-04-24T01:01:15;10.60;99.90
21487;DHT22;10905;50.822;4.336;2023-04-24T01:03:40;10.60;99.90
21487;DHT22;10905;50.822;4.336;2023-04-24T01:06:06;10.50;99.90
21487;DHT22;10905;50.822;4.336;2023-04-24T01:08:32;10.50;99.90
21487;DHT22;10905;50.822;4.336;2023-04-24T01:10:58;10.50;99.90
21487;DHT22;10905;50.822;4.336;2023-04-24T01:13:23;10.50;99.90
21487;DHT22;10905;50.822;4.336;2023-04-24T01:15:49;10.40;99.90
21487;DHT22;10905;50.822;4.336;2023-04-24T01:18:15;10.40;99.90
21487;DHT22;10905;50.822;4.336;2023-04-24T01:20:40;10.30;99.90
21487;DHT22;10905;50.822;4.336;2023-04-24T01:23:07;10.30;99.90
21487;DHT22;10905;50.822;4.336;2023-04-24T01:25:32;10.20;99.90
21487;DHT22;10905;50.822;4.336;2023-04-24T01:27:58;10.10;99.90
21487;DHT22;10905;50.822;4.336;2023-04-24T01:30:24;10.10;99.90
21487;DHT22;10905;50.822;4.336;2023-04-24T01:32:50;10.20;99.90
21487;DHT22;10905;50.822;4.336;2023-04-24T01:35:16;10.20;99.90
21487;DHT22;10905;50.822;4.336;2023-04-24T01:37:42;10.10;99.90
21487;DHT22;10905;50.822;4.336;2023-04-24T01:40:08;10.10;99.90
21487;DHT22;10905;50.822;4.336;2023-04-24T01:42:34;10.00;99.90
21487;DHT22;10905;50.822;4.336;2023-04-24T01:44:59;10.00;99.90
21487;DHT22;10905;50.822;4.336;2023-04-24T01:47:25;10.00;99.90
21487;DHT22;10905;50.822;4.336;2023-04-24T01:49:51;10.00;99.90
21487;DHT22;10905;50.822;4.336;2023-04-24T01:52:17;10.00;99.90
21487;DHT22;10905;50.822;4.336;2023-04-24T01:54:44;10.10;99.90
21487;DHT22;10905;50.822;4.336;2023-04-24T01:57:10;10.10;99.90
21487;DHT22;10905;50.822;4.336;2023-04-24T01:59:35;10.10;99.90
21487;DHT22;10905;50.822;4.336;2023-04-24T02:02:02;10.10;99.90
21487;DHT22;10905;50.822;4.336;2023-04-24T02:04:27;10.20;99.90
21487;DHT22;10905;50.822;4.336;2023-04-24T02:06:53;10.00;99.90
21487;DHT22;10905;50.822;4.336;2023-04-24T02:09:19;10.10;99.90
21487;DHT22;10905;50.822;4.336;2023-04-24T02:11:44;10.10;99.90
21487;DHT22;10905;50.822;4.336;2023-04-24T02:14:10;10.00;99.90
21487;DHT22;10905;50.822;4.336;2023-04-24T02:16:35;9.90;99.90
21487;DHT22;10905;50.822;4.336;2023-04-24T02:19:01;10.00;99.90
21487;DHT22;10905;50.822;4.336;2023-04-24T02:21:27;10.00;99.90
21487;DHT22;10905;50.822;4.336;2023-04-24T02:23:53;9.90;99.90
21487;DHT22;10905;50.822;4.336;2023-04-24T02:26:18;9.90;99.90
21487;DHT22;10905;50.822;4.336;2023-04-24T02:28:44;9.80;99.90
21487;DHT22;10905;50.822;4.336;2023-04-24T02:31:09;9.80;99.90
21487;DHT22;10905;50.822;4.336;2023-04-24T02:33:35;9.80;99.90
21487;DHT22;10905;50.822;4.336;2023-04-24T02:36:01;9.80;99.90
21487;DHT22;10905;50.822;4.336;2023-04-24T02:38:27;9.80;99.90
21487;DHT22;10905;50.822;4.336;2023-04-24T02:40:52;9.90;99.90
21487;DHT22;10905;50.822;4.336;2023-04-24T02:43:18;9.90;99.90
21487;DHT22;10905;50.822;4.336;2023-04-24T02:45:43;9.80;99.90
21487;DHT22;10905;50.822;4.336;2023-04-24T02:48:09;9.80;99.90
21487;DHT22;10905;50.822;4.336;2023-04-24T02:50:34;9.80;99.90
21487;DHT22;10905;50.822;4.336;2023-04-24T02:53:00;9.80;99.90
21487;DHT22;10905;50.822;4.336;2023-04-24T02:55:25;9.80;99.90
21487;DHT22;10905;50.822;4.336;2023-04-24T02:57:51;9.80;99.90
21487;DHT22;10905;50.822;4.336;2023-04-24T03:00:16;9.80;99.90
21487;DHT22;10905;50.822;4.336;2023-04-24T03:02:42;9.80;99.90
21487;DHT22;10905;50.822;4.336;2023-04-24T03:05:07;9.80;99.90
21487;DHT22;10905;50.822;4.336;2023-04-24T03:07:34;9.80;99.90
21487;DHT22;10905;50.822;4.336;2023-04-24T03:10:00;9.80;99.90
21487;DHT22;10905;50.822;4.336;2023-04-24T03:12:25;9.80;99.90
21487;DHT22;10905;50.822;4.336;2023-04-24T03:14:51;9.70;99.90
21487;DHT22;10905;50.822;4.336;2023-04-24T03:17:16;9.80;99.90
21487;DHT22;10905;50.822;4.336;2023-04-24T03:19:42;9.80;99.90
21487;DHT22;10905;50.822;4.336;2023-04-24T03:22:07;9.90;99.90
21487;DHT22;10905;50.822;4.336;2023-04-24T03:24:34;9.80;99.90
21487;DHT22;10905;50.822;4.336;2023-04-24T03:27:00;9.60;99.90
21487;DHT22;10905;50.822;4.336;2023-04-24T03:29:25;9.70;99.90
21487;DHT22;10905;50.822;4.336;2023-04-24T03:31:51;9.70;99.90
21487;DHT22;10905;50.822;4.336;2023-04-24T03:34:16;9.70;99.90
21487;DHT22;10905;50.822;4.336;2023-04-24T03:36:42;9.70;99.90
21487;DHT22;10905;50.822;4.336;2023-04-24T03:39:07;9.60;99.90
21487;DHT22;10905;50.822;4.336;2023-04-24T03:41:33;9.60;99.90
21487;DHT22;10905;50.822;4.336;2023-04-24T03:43:58;9.50;99.90
21487;DHT22;10905;50.822;4.336;2023-04-24T03:46:24;9.60;99.90
21487;DHT22;10905;50.822;4.336;2023-04-24T03:48:50;9.60;99.90
21487;DHT22;10905;50.822;4.336;2023-04-24T03:51:15;9.60;99.90
21487;DHT22;10905;50.822;4.336;2023-04-24T03:53:41;9.60;99.90
21487;DHT22;10905;50.822;4.336;2023-04-24T03:56:06;9.60;99.90
21487;DHT22;10905;50.822;4.336;2023-04-24T03:58:32;9.60;99.90
21487;DHT22;10905;50.822;4.336;2023-04-24T04:00:57;9.60;99.90
21487;DHT22;10905;50.822;4.336;2023-04-24T04:03:23;9.50;99.90
21487;DHT22;10905;50.822;4.336;2023-04-24T04:05:49;9.60;99.90
21487;DHT22;10905;50.822;4.336;2023-04-24T04:08:14;9.60;99.90
21487;DHT22;10905;50.822;4.336;2023-04-24T04:10:40;9.60;99.90
21487;DHT22;10905;50.822;4.336;2023-04-24T04:13:05;9.60;99.90
21487;DHT22;10905;50.822;4.336;2023-04-24T04:15:31;9.70;99.90
21487;DHT22;10905;50.822;4.336;2023-04-24T04:17:57;9.70;99.90
21487;DHT22;10905;50.822;4.336;2023-04-24T04:20:22;9.70;99.90
21487;DHT22;10905;50.822;4.336;2023-04-24T04:22:48;9.80;99.90
21487;DHT22;10905;50.822;4.336;2023-04-24T04:25:14;9.80;99.90
21487;DHT22;10905;50.822;4.336;2023-04-24T04:27:39;9.80;99.90
21487;DHT22;10905;50.822;4.336;2023-04-24T04:30:07;9.80;99.90
21487;DHT22;10905;50.822;4.336;2023-04-24T04:32:34;9.80;99.90
21487;DHT22;10905;50.822;4.336;2023-04-24T04:35:00;9.70;99.90
21487;DHT22;10905;50.822;4.336;2023-04-24T04:37:28;9.70;99.90
21487;DHT22;10905;50.822;4.336;2023-04-24T04:39:54;9.70;99.90
21487;DHT22;10905;50.822;4.336;2023-04-24T04:42:19;9.50;99.90
21487;DHT22;10905;50.822;4.336;2023-04-24T04:44:45;9.50;99.90
21487;DHT22;10905;50.822;4.336;2023-04-24T04:47:11;9.50;99.90
21487;DHT22;10905;50.822;4.336;2023-04-24T04:49:37;9.40;99.90
21487;DHT22;10905;50.822;4.336;2023-04-24T04:52:03;9.50;99.90
21487;DHT22;10905;50.822;4.336;2023-04-24T04:54:29;9.40;99.90
21487;DHT22;10905;50.822;4.336;2023-04-24T04:56:54;9.40;99.90
21487;DHT22;10905;50.822;4.336;2023-04-24T04:59:20;9.40;99.90
21487;DHT22;10905;50.822;4.336;2023-04-24T05:01:46;9.40;99.90
21487;DHT22;10905;50.822;4.336;2023-04-24T05:04:11;9.30;99.90
21487;DHT22;10905;50.822;4.336;2023-04-24T05:06:37;9.30;99.90
21487;DHT22;10905;50.822;4.336;2023-04-24T05:09:02;9.30;99.90
21487;DHT22;10905;50.822;4.336;2023-04-24T05:11:28;9.30;99.90
21487;DHT22;10905;50.822;4.336;2023-04-24T05:13:55;9.20;99.90
21487;DHT22;10905;50.822;4.336;2023-04-24T05:16:20;9.20;99.90
21487;DHT22;10905;50.822;4.336;2023-04-24T05:18:46;9.20;99.90
21487;DHT22;10905;50.822;4.336;2023-04-24T05:21:11;9.30;99.90
21487;DHT22;10905;50.822;4.336;2023-04-24T05:23:37;9.30;99.90
21487;DHT22;10905;50.822;4.336;2023-04-24T05:26:02;9.30;99.90
21487;DHT22;10905;50.822;4.336;2023-04-24T05:28:28;9.30;99.90
21487;DHT22;10905;50.822;4.336;2023-04-24T05:30:54;9.30;99.90
21487;DHT22;10905;50.822;4.336;2023-04-24T05:33:21;9.30;99.90
21487;DHT22;10905;50.822;4.336;2023-04-24T05:35:47;9.30;99.90
21487;DHT22;10905;50.822;4.336;2023-04-24T05:38:13;9.30;99.90
21487;DHT22;10905;50.822;4.336;2023-04-24T05:40:39;9.30;99.90
21487;DHT22;10905;50.822;4.336;2023-04-24T05:43:04;9.40;99.90
21487;DHT22;10905;50.822;4.336;2023-04-24T05:45:30;9.30;99.90
21487;DHT22;10905;50.822;4.336;2023-04-24T05:47:55;9.30;99.90
21487;DHT22;10905;50.822;4.336;2023-04-24T05:50:21;9.30;99.90
21487;DHT22;10905;50.822;4.336;2023-04-24T05:52:47;9.40;99.90
21487;DHT22;10905;50.822;4.336;2023-04-24T05:55:12;9.40;99.90
21487;DHT22;10905;50.822;4.336;2023-04-24T05:57:38;9.40;99.90
21487;DHT22;10905;50.822;4.336;2023-04-24T06:00:04;9.40;99.90
21487;DHT22;10905;50.822;4.336;2023-04-24T06:02:30;9.30;99.90
21487;DHT22;10905;50.822;4.336;2023-04-24T06:04:58;9.30;99.90
21487;DHT22;10905;50.822;4.336;2023-04-24T06:07:24;9.30;99.90
21487;DHT22;10905;50.822;4.336;2023-04-24T06:09:51;9.30;99.90
21487;DHT22;10905;50.822;4.336;2023-04-24T06:12:17;9.30;99.90
21487;DHT22;10905;50.822;4.336;2023-04-24T06:14:43;9.30;99.90
21487;DHT22;10905;50.822;4.336;2023-04-24T06:17:08;9.20;99.90
21487;DHT22;10905;50.822;4.336;2023-04-24T06:19:34;9.20;99.90
21487;DHT22;10905;50.822;4.336;2023-04-24T06:21:59;9.30;99.90
21487;DHT22;10905;50.822;4.336;2023-04-24T06:24:28;9.30;99.90
21487;DHT22;10905;50.822;4.336;2023-04-24T06:26:54;9.30;99.90
21487;DHT22;10905;50.822;4.336;2023-04-24T06:29:19;9.30;99.90
21487;DHT22;10905;50.822;4.336;2023-04-24T06:31:45;9.20;99.90
21487;DHT22;10905;50.822;4.336;2023-04-24T06:34:10;9.20;99.90
21487;DHT22;10905;50.822;4.336;2023-04-24T06:36:36;9.20;99.90
21487;DHT22;10905;50.822;4.336;2023-04-24T06:39:01;9.20;99.90
21487;DHT22;10905;50.822;4.336;2023-04-24T06:41:27;9.20;99.90
21487;DHT22;10905;50.822;4.336;2023-04-24T06:43:53;9.30;99.90
21487;DHT22;10905;50.822;4.336;2023-04-24T06:46:19;9.30;99.90
21487;DHT22;10905;50.822;4.336;2023-04-24T06:48:47;9.40;99.90
21487;DHT22;10905;50.822;4.336;2023-04-24T06:51:12;9.40;99.90
21487;DHT22;10905;50.822;4.336;2023-04-24T06:53:38;9.50;99.90
21487;DHT22;10905;50.822;4.336;2023-04-24T06:56:03;9.50;99.90
21487;DHT22;10905;50.822;4.336;2023-04-24T06:58:30;9.60;99.90
21487;DHT22;10905;50.822;4.336;2023-04-24T07:00:56;9.60;99.90
21487;DHT22;10905;50.822;4.336;2023-04-24T07:03:21;9.70;99.90
21487;DHT22;10905;50.822;4.336;2023-04-24T07:05:47;9.70;99.90
21487;DHT22;10905;50.822;4.336;2023-04-24T07:08:14;9.70;99.90
21487;DHT22;10905;50.822;4.336;2023-04-24T07:10:43;9.70;99.90
21487;DHT22;10905;50.822;4.336;2023-04-24T07:13:08;9.70;99.90
21487;DHT22;10905;50.822;4.336;2023-04-24T07:15:34;9.60;99.90
21487;DHT22;10905;50.822;4.336;2023-04-24T07:18:00;9.70;99.90
21487;DHT22;10905;50.822;4.336;2023-04-24T07:20:25;9.80;99.90
21487;DHT22;10905;50.822;4.336;2023-04-24T07:22:51;9.80;99.90
21487;DHT22;10905;50.822;4.336;2023-04-24T07:25:19;9.80;99.90
21487;DHT22;10905;50.822;4.336;2023-04-24T07:27:44;9.80;99.90
21487;DHT22;10905;50.822;4.336;2023-04-24T07:30:10;10.00;99.90
21487;DHT22;10905;50.822;4.336;2023-04-24T07:32:36;10.00;99.90
21487;DHT22;10905;50.822;4.336;2023-04-24T07:35:01;10.10;99.90
21487;DHT22;10905;50.822;4.336;2023-04-24T07:37:27;10.00;99.90
21487;DHT22;10905;50.822;4.336;2023-04-24T07:39:53;9.90;99.90
21487;DHT22;10905;50.822;4.336;2023-04-24T07:42:18;9.90;99.90
21487;DHT22;10905;50.822;4.336;2023-04-24T07:44:44;9.90;99.90
21487;DHT22;10905;50.822;4.336;2023-04-24T07:47:11;10.00;99.90
21487;DHT22;10905;50.822;4.336;2023-04-24T07:49:37;10.10;99.90
21487;DHT22;10905;50.822;4.336;2023-04-24T07:52:03;10.20;99.90
21487;DHT22;10905;50.822;4.336;2023-04-24T07:54:28;10.20;99.90
21487;DHT22;10905;50.822;4.336;2023-04-24T07:56:54;10.30;99.90
21487;DHT22;10905;50.822;4.336;2023-04-24T07:59:19;10.20;99.90
21487;DHT22;10905;50.822;4.336;2023-04-24T08:01:45;10.20;99.90
21487;DHT22;10905;50.822;4.336;2023-04-24T08:04:11;10.10;99.90
21487;DHT22;10905;50.822;4.336;2023-04-24T08:06:36;10.10;99.90
21487;DHT22;10905;50.822;4.336;2023-04-24T08:09:02;10.00;99.90
21487;DHT22;10905;50.822;4.336;2023-04-24T08:11:28;10.10;99.90
21487;DHT22;10905;50.822;4.336;2023-04-24T08:13:53;10.20;99.90
21487;DHT22;10905;50.822;4.336;2023-04-24T08:16:20;10.30;99.90
21487;DHT22;10905;50.822;4.336;2023-04-24T08:18:45;10.40;99.90
21487;DHT22;10905;50.822;4.336;2023-04-24T08:21:11;10.30;99.90
21487;DHT22;10905;50.822;4.336;2023-04-24T08:23:38;10.50;99.90
21487;DHT22;10905;50.822;4.336;2023-04-24T08:26:03;10.50;99.90
21487;DHT22;10905;50.822;4.336;2023-04-24T08:28:29;10.50;99.90
21487;DHT22;10905;50.822;4.336;2023-04-24T08:30:55;10.60;99.90
21487;DHT22;10905;50.822;4.336;2023-04-24T08:33:21;10.70;99.90
21487;DHT22;10905;50.822;4.336;2023-04-24T08:35:47;10.70;99.90
21487;DHT22;10905;50.822;4.336;2023-04-24T08:38:12;10.80;99.90
21487;DHT22;10905;50.822;4.336;2023-04-24T08:40:38;10.80;99.90
21487;DHT22;10905;50.822;4.336;2023-04-24T08:43:04;10.90;99.90
21487;DHT22;10905;50.822;4.336;2023-04-24T08:45:30;10.90;99.90
21487;DHT22;10905;50.822;4.336;2023-04-24T08:47:55;11.00;99.90
21487;DHT22;10905;50.822;4.336;2023-04-24T08:50:22;11.10;99.90
21487;DHT22;10905;50.822;4.336;2023-04-24T08:52:52;11.20;99.90
21487;DHT22;10905;50.822;4.336;2023-04-24T08:55:22;11.10;99.90
21487;DHT22;10905;50.822;4.336;2023-04-24T08:57:50;11.20;99.90
21487;DHT22;10905;50.822;4.336;2023-04-24T09:00:16;11.40;99.90
21487;DHT22;10905;50.822;4.336;2023-04-24T09:02:42;11.60;99.90
21487;DHT22;10905;50.822;4.336;2023-04-24T09:05:09;11.80;99.90
21487;DHT22;10905;50.822;4.336;2023-04-24T09:07:35;11.90;99.90
21487;DHT22;10905;50.822;4.336;2023-04-24T09:10:04;11.80;99.90
21487;DHT22;10905;50.822;4.336;2023-04-24T09:12:30;11.80;99.90
21487;DHT22;10905;50.822;4.336;2023-04-24T09:14:56;11.90;99.90
21487;DHT22;10905;50.822;4.336;2023-04-24T09:17:22;12.00;99.90
21487;DHT22;10905;50.822;4.336;2023-04-24T09:19:48;12.00;99.90
21487;DHT22;10905;50.822;4.336;2023-04-24T09:22:13;12.00;99.90
21487;DHT22;10905;50.822;4.336;2023-04-24T09:24:40;11.90;99.90
21487;DHT22;10905;50.822;4.336;2023-04-24T09:27:05;11.80;99.90
21487;DHT22;10905;50.822;4.336;2023-04-24T09:29:32;11.60;99.90
21487;DHT22;10905;50.822;4.336;2023-04-24T09:31:58;11.60;99.90
21487;DHT22;10905;50.822;4.336;2023-04-24T09:34:24;11.40;99.90
21487;DHT22;10905;50.822;4.336;2023-04-24T09:36:50;11.40;99.90
21487;DHT22;10905;50.822;4.336;2023-04-24T09:39:17;11.60;99.90
21487;DHT22;10905;50.822;4.336;2023-04-24T09:41:50;11.60;99.90
21487;DHT22;10905;50.822;4.336;2023-04-24T09:44:16;11.70;99.90
21487;DHT22;10905;50.822;4.336;2023-04-24T09:46:43;12.00;99.90
21487;DHT22;10905;50.822;4.336;2023-04-24T09:49:10;12.10;99.90
21487;DHT22;10905;50.822;4.336;2023-04-24T09:51:37;12.00;99.90
21487;DHT22;10905;50.822;4.336;2023-04-24T09:54:03;12.00;99.90
21487;DHT22;10905;50.822;4.336;2023-04-24T09:56:32;12.10;99.90
21487;DHT22;10905;50.822;4.336;2023-04-24T09:59:04;12.00;99.90
21487;DHT22;10905;50.822;4.336;2023-04-24T10:01:30;12.00;99.90
21487;DHT22;10905;50.822;4.336;2023-04-24T10:03:56;12.10;99.90
21487;DHT22;10905;50.822;4.336;2023-04-24T10:06:21;12.20;99.90
21487;DHT22;10905;50.822;4.336;2023-04-24T10:08:47;12.10;99.90
21487;DHT22;10905;50.822;4.336;2023-04-24T10:11:13;12.20;99.90
21487;DHT22;10905;50.822;4.336;2023-04-24T10:13:39;12.00;99.90
21487;DHT22;10905;50.822;4.336;2023-04-24T10:16:05;12.00;99.90
21487;DHT22;10905;50.822;4.336;2023-04-24T10:18:31;12.20;99.90
21487;DHT22;10905;50.822;4.336;2023-04-24T10:20:58;12.20;99.90
21487;DHT22;10905;50.822;4.336;2023-04-24T10:23:25;12.20;99.90
21487;DHT22;10905;50.822;4.336;2023-04-24T10:25:51;12.20;99.90
21487;DHT22;10905;50.822;4.336;2023-04-24T10:28:17;12.30;99.90
21487;DHT22;10905;50.822;4.336;2023-04-24T10:30:44;12.20;99.90
21487;DHT22;10905;50.822;4.336;2023-04-24T10:33:10;12.00;99.90
21487;DHT22;10905;50.822;4.336;2023-04-24T10:35:38;12.00;99.90
21487;DHT22;10905;50.822;4.336;2023-04-24T10:38:14;12.10;99.90
21487;DHT22;10905;50.822;4.336;2023-04-24T10:40:42;12.00;99.90
21487;DHT22;10905;50.822;4.336;2023-04-24T10:43:08;12.30;99.90
21487;DHT22;10905;50.822;4.336;2023-04-24T10:45:36;12.50;99.90
21487;DHT22;10905;50.822;4.336;2023-04-24T10:48:05;12.70;99.90
21487;DHT22;10905;50.822;4.336;2023-04-24T10:50:43;13.00;99.90
21487;DHT22;10905;50.822;4.336;2023-04-24T10:53:13;12.90;99.90
21487;DHT22;10905;50.822;4.336;2023-04-24T10:55:48;13.10;99.90
21487;DHT22;10905;50.822;4.336;2023-04-24T10:58:14;12.90;99.90
21487;DHT22;10905;50.822;4.336;2023-04-24T11:00:42;12.90;99.90
21487;DHT22;10905;50.822;4.336;2023-04-24T11:03:22;13.00;99.90
21487;DHT22;10905;50.822;4.336;2023-04-24T11:05:59;13.10;99.90
21487;DHT22;10905;50.822;4.336;2023-04-24T11:08:25;13.10;99.90
21487;DHT22;10905;50.822;4.336;2023-04-24T11:11:02;13.10;99.90
21487;DHT22;10905;50.822;4.336;2023-04-24T11:14:01;13.30;99.90
21487;DHT22;10905;50.822;4.336;2023-04-24T11:18:45;13.10;99.90
21487;DHT22;10905;50.822;4.336;2023-04-24T11:21:17;13.20;99.90
21487;DHT22;10905;50.822;4.336;2023-04-24T11:23:42;13.30;99.90
21487;DHT22;10905;50.822;4.336;2023-04-24T11:26:18;13.60;99.90
21487;DHT22;10905;50.822;4.336;2023-04-24T11:28:44;13.40;99.90
21487;DHT22;10905;50.822;4.336;2023-04-24T11:33:54;13.40;99.90
21487;DHT22;10905;50.822;4.336;2023-04-24T11:36:20;13.50;99.90
21487;DHT22;10905;50.822;4.336;2023-04-24T11:38:46;13.50;99.90
21487;DHT22;10905;50.822;4.336;2023-04-24T11:41:12;13.70;99.90
21487;DHT22;10905;50.822;4.336;2023-04-24T11:43:38;13.60;99.90
21487;DHT22;10905;50.822;4.336;2023-04-24T11:46:04;13.60;99.90
21487;DHT22;10905;50.822;4.336;2023-04-24T11:48:31;13.40;99.90
21487;DHT22;10905;50.822;4.336;2023-04-24T11:51:01;13.30;99.90
21487;DHT22;10905;50.822;4.336;2023-04-24T11:53:27;13.50;99.90
21487;DHT22;10905;50.822;4.336;2023-04-24T11:55:52;13.30;99.90
21487;DHT22;10905;50.822;4.336;2023-04-24T11:58:20;13.20;99.90
21487;DHT22;10905;50.822;4.336;2023-04-24T12:00:54;13.20;99.90
21487;DHT22;10905;50.822;4.336;2023-04-24T12:03:20;13.30;99.90
21487;DHT22;10905;50.822;4.336;2023-04-24T12:05:46;13.60;99.90
21487;DHT22;10905;50.822;4.336;2023-04-24T12:08:11;13.90;99.90
21487;DHT22;10905;50.822;4.336;2023-04-24T12:10:37;14.00;99.90
21487;DHT22;10905;50.822;4.336;2023-04-24T12:13:02;14.00;99.90
21487;DHT22;10905;50.822;4.336;2023-04-24T12:15:28;14.10;99.90
21487;DHT22;10905;50.822;4.336;2023-04-24T12:17:55;14.10;99.90
21487;DHT22;10905;50.822;4.336;2023-04-24T12:20:28;14.00;99.90
21487;DHT22;10905;50.822;4.336;2023-04-24T12:22:54;14.00;99.90
21487;DHT22;10905;50.822;4.336;2023-04-24T12:25:21;14.00;99.90
21487;DHT22;10905;50.822;4.336;2023-04-24T12:30:33;13.70;99.90
21487;DHT22;10905;50.822;4.336;2023-04-24T12:32:59;13.70;99.90
21487;DHT22;10905;50.822;4.336;2023-04-24T12:35:27;13.70;99.90
21487;DHT22;10905;50.822;4.336;2023-04-24T12:37:52;13.90;99.90
21487;DHT22;10905;50.822;4.336;2023-04-24T12:40:19;13.60;99.90
21487;DHT22;10905;50.822;4.336;2023-04-24T12:42:49;13.50;99.90
21487;DHT22;10905;50.822;4.336;2023-04-24T12:45:15;13.70;99.90
21487;DHT22;10905;50.822;4.336;2023-04-24T12:47:41;13.90;99.90
21487;DHT22;10905;50.822;4.336;2023-04-24T12:50:07;14.00;99.90
21487;DHT22;10905;50.822;4.336;2023-04-24T12:52:33;14.00;99.90
21487;DHT22;10905;50.822;4.336;2023-04-24T12:54:59;14.10;99.90
21487;DHT22;10905;50.822;4.336;2023-04-24T12:57:26;14.10;99.90
21487;DHT22;10905;50.822;4.336;2023-04-24T12:59:55;14.20;99.90
21487;DHT22;10905;50.822;4.336;2023-04-24T13:02:24;14.10;99.90
21487;DHT22;10905;50.822;4.336;2023-04-24T13:04:50;14.00;99.90
21487;DHT22;10905;50.822;4.336;2023-04-24T13:07:16;13.90;99.90
21487;DHT22;10905;50.822;4.336;2023-04-24T13:09:42;13.70;99.90
21487;DHT22;10905;50.822;4.336;2023-04-24T13:12:08;13.80;99.90
21487;DHT22;10905;50.822;4.336;2023-04-24T13:14:34;13.80;99.90
21487;DHT22;10905;50.822;4.336;2023-04-24T13:17:00;13.70;99.90
21487;DHT22;10905;50.822;4.336;2023-04-24T13:19:25;13.60;99.90
21487;DHT22;10905;50.822;4.336;2023-04-24T13:21:51;13.60;99.90
21487;DHT22;10905;50.822;4.336;2023-04-24T13:24:17;13.80;99.90
21487;DHT22;10905;50.822;4.336;2023-04-24T13:26:43;14.20;99.90
21487;DHT22;10905;50.822;4.336;2023-04-24T13:29:08;14.70;99.90
21487;DHT22;10905;50.822;4.336;2023-04-24T13:31:34;14.80;99.90
21487;DHT22;10905;50.822;4.336;2023-04-24T13:34:00;14.70;99.90
21487;DHT22;10905;50.822;4.336;2023-04-24T13:36:26;14.50;99.90
21487;DHT22;10905;50.822;4.336;2023-04-24T13:38:52;14.40;99.90
21487;DHT22;10905;50.822;4.336;2023-04-24T13:41:17;14.20;99.90
21487;DHT22;10905;50.822;4.336;2023-04-24T13:43:43;14.30;99.90
21487;DHT22;10905;50.822;4.336;2023-04-24T13:46:08;14.50;99.90
21487;DHT22;10905;50.822;4.336;2023-04-24T13:48:34;14.60;99.90
21487;DHT22;10905;50.822;4.336;2023-04-24T13:50:59;14.90;99.90
21487;DHT22;10905;50.822;4.336;2023-04-24T13:53:25;15.10;99.90
21487;DHT22;10905;50.822;4.336;2023-04-24T13:55:50;15.00;99.90
21487;DHT22;10905;50.822;4.336;2023-04-24T13:58:16;14.90;99.90
21487;DHT22;10905;50.822;4.336;2023-04-24T14:00:42;14.80;99.90
21487;DHT22;10905;50.822;4.336;2023-04-24T14:03:07;14.60;99.90
21487;DHT22;10905;50.822;4.336;2023-04-24T14:05:33;14.20;99.90
21487;DHT22;10905;50.822;4.336;2023-04-24T14:07:58;14.00;99.90
21487;DHT22;10905;50.822;4.336;2023-04-24T14:10:24;14.00;99.90
21487;DHT22;10905;50.822;4.336;2023-04-24T14:12:50;14.10;99.90
21487;DHT22;10905;50.822;4.336;2023-04-24T14:15:15;13.90;99.90
21487;DHT22;10905;50.822;4.336;2023-04-24T14:17:42;13.60;99.90
21487;DHT22;10905;50.822;4.336;2023-04-24T14:20:07;13.50;99.90
21487;DHT22;10905;50.822;4.336;2023-04-24T14:22:34;13.50;99.90
21487;DHT22;10905;50.822;4.336;2023-04-24T14:24:59;13.70;99.90
21487;DHT22;10905;50.822;4.336;2023-04-24T14:27:25;13.80;99.90
21487;DHT22;10905;50.822;4.336;2023-04-24T14:29:51;13.70;99.90
21487;DHT22;10905;50.822;4.336;2023-04-24T14:32:17;13.60;99.90
21487;DHT22;10905;50.822;4.336;2023-04-24T14:34:43;13.70;99.90
21487;DHT22;10905;50.822;4.336;2023-04-24T14:37:08;13.80;99.90
21487;DHT22;10905;50.822;4.336;2023-04-24T14:39:34;13.80;99.90
21487;DHT22;10905;50.822;4.336;2023-04-24T14:42:00;13.70;99.90
21487;DHT22;10905;50.822;4.336;2023-04-24T14:44:26;13.70;99.90
21487;DHT22;10905;50.822;4.336;2023-04-24T14:46:51;13.80;99.90
21487;DHT22;10905;50.822;4.336;2023-04-24T14:49:17;13.80;99.90
21487;DHT22;10905;50.822;4.336;2023-04-24T14:51:42;13.80;99.90
21487;DHT22;10905;50.822;4.336;2023-04-24T14:54:08;13.90;99.90
21487;DHT22;10905;50.822;4.336;2023-04-24T14:56:34;14.00;99.90
21487;DHT22;10905;50.822;4.336;2023-04-24T14:59:00;14.10;99.90
21487;DHT22;10905;50.822;4.336;2023-04-24T15:01:25;14.20;99.90
21487;DHT22;10905;50.822;4.336;2023-04-24T15:03:51;14.10;99.90
21487;DHT22;10905;50.822;4.336;2023-04-24T15:06:16;14.20;99.90
21487;DHT22;10905;50.822;4.336;2023-04-24T15:08:42;14.10;99.90
21487;DHT22;10905;50.822;4.336;2023-04-24T15:11:09;13.90;99.90
21487;DHT22;10905;50.822;4.336;2023-04-24T15:13:34;13.80;99.90
21487;DHT22;10905;50.822;4.336;2023-04-24T15:16:00;13.60;99.90
21487;DHT22;10905;50.822;4.336;2023-04-24T15:18:25;13.60;99.90
21487;DHT22;10905;50.822;4.336;2023-04-24T15:20:52;13.80;99.90
21487;DHT22;10905;50.822;4.336;2023-04-24T15:23:18;13.80;99.90
21487;DHT22;10905;50.822;4.336;2023-04-24T15:25:44;13.90;99.90
21487;DHT22;10905;50.822;4.336;2023-04-24T15:28:09;13.80;99.90
21487;DHT22;10905;50.822;4.336;2023-04-24T15:30:35;13.80;99.90
21487;DHT22;10905;50.822;4.336;2023-04-24T15:33:01;14.00;99.90
21487;DHT22;10905;50.822;4.336;2023-04-24T15:35:27;14.10;99.90